KFOE/FOE METAR and TAF weather

Enter ICAO airport designator
Station Type Date Time Source
KFOE METAR 2020/07/09 22:53 UTC NOAA

KFOE 092253Z 33009KT 10SM CLR 30/20 A2989 RMK AO2 SLP112 T03000200


Station Type Date Time Source
KFOE Decoded METAR 2020/07/09 22:53 UTC NOAA

FORBES FIELD, KS, United States (KFOE) 38-56N 95-39W 320M
Jul 09, 2020 - 06:53 PM EDT / 2020.07.09 2253 UTC
Wind: from the NNW (330 degrees) at 10 MPH (9 KT):0
Visibility: 10 mile(s):0
Sky conditions: clear
Temperature: 86.0 F (30.0 C)
Dew Point: 68.0 F (20.0 C)
Relative Humidity: 55%
Pressure (altimeter): 29.89 in. Hg (1012 hPa)
ob: KFOE 092253Z 33009KT 10SM CLR 30/20 A2989 RMK AO2 SLP112 T03000200
cycle: 23

Station Type Date Time Source
KFOE TAF 2020/07/09 18:36 UTC NOAA

TAF KFOE 091734Z 0918/1018 35008KT P6SM SCT120
FM092100 28008KT P6SM SCT050
FM100000 30005KT P6SM FEW050 SCT200

Example: see airport list